Conesville, Ohio
Current Conditions -  °F | °C
As of 7:53 AM on Friday 24 Oct 2014 (Local Time) from KZZV Reporting Station
Haze Haze  
Wind Chill: 32°   Ceiling: Unl
Heat Index: 32°   Visibility: 3mi
Dew Point: 30°   Wind: 0mph
Humidity: 92%   Direction: NA
Pressure: 30.12"   Gusts: NA
Location:  40.18°N, 81.89°W
Report Text: KZZV 241153Z AUTO 00000KT 3SM BR FEW002 00/M01 A3012 RMK AO2 SLP203 T00001011 10033 20000 50001
Loading
Personal Weather Stations






























Interactive Weather Map
Tropical Storm Tracking
New forecast layout! Learn more

10-Day Weather Forecast

Advertisements
Track Severe Weather on mobile